This demonstration page uses our WeatherBlox Daily Observations layout. Learn more.

Left ArrowRight Arrow

36.17497, -115.13722

Hourly Observations for March 24, 2016

Temp ( °F °C ) Dew Point ( °F °C ) Humidity (%) Winds ( mph kmh ) Pressure ( in mb ) Visibility ( mi km ) Precip ( " mm )
12:53 am 00:53 Clear 53 11.7 14 -10 21 21 NNE 5 7 30.2 1023 10 16.0934 0 0
1:53 am 01:53 Clear 55 12.8 14 -10 20 20 Calm 30.2 1023 10 16.0934 0 0
2:53 am 02:53 Clear 52 11.1 17 -8.3 25 25 W 5 7 30.2 1023 10 16.0934 0 0
3:53 am 03:53 Clear 50 10 18 -7.8 28 28 WNW 6 9 30.19 1022 10 16.0934 0 0
4:53 am 04:53 Clear 49 9.4 17 -8.3 28 28 N 5 7 30.2 1023 10 16.0934 0 0
5:53 am 05:53 Clear 50 10 17 -8.3 27 27 WNW 5 7 30.2 1023 10 16.0934 0 0
6:53 am 06:53 Sunny 49 9.4 17 -8.3 28 28 WNW 5 7 30.21 1023 10 16.0934 0 0
7:53 am 07:53 Sunny 53 11.7 19 -7.2 26 26 W 5 7 30.21 1023 10 16.0934 0 0
8:53 am 08:53 Sunny 56 13.3 21 -6.1 26 26 SE 3 6 30.22 1023 10 16.0934 0 0
9:53 am 09:53 Sunny 59 15 16 -8.9 18 18 Calm 30.22 1023 10 16.0934 0 0
10:53 am 10:53 Sunny 62 16.7 17 -8.3 17 17 VRB 3 6 30.19 1023 10 16.0934 0 0
11:53 am 11:53 Sunny 65 18.3 16 -8.9 15 15 ESE 6 9 30.16 1021 10 16.0934 0 0
12:53 pm 12:53 Sunny 68 20 17 -8.3 14 14 VRB 3 6 30.12 1020 10 16.0934 0 0
1:53 pm 13:53 Sunny 69 20.6 18 -7.8 14 14 S 5 7 30.07 1018 10 16.0934 0 0
2:53 pm 14:53 Sunny 71 21.7 18 -7.8 13 13 SSW 6 9 30.03 1017 10 16.0934 0 0
3:53 pm 15:53 Sunny 73 22.8 17 -8.3 12 12 S 10 17 29.99 1016 10 16.0934 0 0
4:53 pm 16:53 Sunny 75 23.9 17 -8.3 11 11 WNW 13 20 29.94 1014 10 16.0934 0 0
5:53 pm 17:53 Sunny 75 23.9 17 -8.3 11 11 SE 3 6 29.93 1014 10 16.0934 0 0
6:53 pm 18:53 Sunny 73 22.8 17 -8.3 12 12 S 5 7 29.92 1013 10 16.0934 0 0
7:53 pm 19:53 Clear 68 20 17 -8.3 14 14 SSE 7 11 29.92 1013 10 16.0934 0 0
8:53 pm 20:53 Clear 65 18.3 17 -8.3 16 16 SE 5 7 29.93 1013 10 16.0934 0 0
9:53 pm 21:53 Clear 63 17.2 18 -7.8 17 17 N 7 11 29.94 1014 10 16.0934 0 0
10:53 pm 22:53 Clear 63 17.2 18 -7.8 17 17 NNW 3 6 29.93 1014 10 16.0934 0 0
11:53 pm 23:53 Clear 59 15 20 -6.7 22 22 NW 7 11 29.93 1014 10 16.0934 0 0

Powered by AerisWeather